• Join FlightAware (Why Join?)
  • Login
  • US Flag 
06:33PM EDT


 

Airport Tracker/Info


-or-


 

Live Flight TrackerFlight Track Log ✈ SWA565 ✈ 19-Apr-2013 ✈ KLAS - KSFO

Flight Track Log - Related Links

Times and Time Zones

All times are in EDT time to prevent confusion due to time zone crossing. See the SWA565 flight status page for this flight to view local times or setup timezone preferences in your user account.

Time Position Orientation Groundspeed Altitude Reporting Facility
EDT Latitude Longitude Course Direction KTS MPH feet Rate Location/Type
01:37AM 36.0758 -115.1764 271° West 176 203 3,600  Level Los Angeles Center
01:38AM 36.0761 -115.2081 271° West 191 220 4,200 2,040 Climbing Los Angeles Center
01:39AM 36.0419 -115.2697 236° Southwest 263 303 6,500 1,320 Climbing Los Angeles Center
01:40AM 35.9681 -115.3072 202° Southwest 283 326 7,000 1,200 Climbing Los Angeles Center
01:41AM 35.9181 -115.3639 223° Southwest 281 323 9,000 1,260 Climbing Los Angeles Center
01:42AM 35.8867 -115.4492 246° West 285 328 9,700 1,020 Climbing Los Angeles Center
01:43AM 35.8894 -115.5683 272° West 299 344 11,100 900 Climbing Los Angeles Center
01:44AM 35.8906 -115.6897 271° West 352 405 11,600 1,560 Climbing Los Angeles Center
01:45AM 35.8936 -115.8192 272° West 349 402 14,300 2,280 Climbing Los Angeles Center
01:46AM 35.8956 -115.9447 271° West 367 422 16,300 1,920 Climbing Los Angeles Center
01:47AM 35.9525 -116.0347 308° West 341 392 18,300 1,620 Climbing Los Angeles Center
01:48AM 36.0244 -116.1167 317° Northwest 353 406 19,600 1,440 Climbing Los Angeles Center
01:49AM 36.0961 -116.2014 316° Northwest 356 410 21,300 1,380 Climbing Los Angeles Center
01:50AM 36.1642 -116.2794 317° Northwest 358 412 22,500 1,080 Climbing Los Angeles Center
01:51AM 36.2392 -116.3642 318° Northwest 363 418 23,600 1,080 Climbing Los Angeles Center
01:52AM 36.3128 -116.4517 316° Northwest 365 420 24,800 1,020 Climbing Los Angeles Center
01:53AM 36.3889 -116.5400 317° Northwest 371 427 25,700 900 Climbing Los Angeles Center
01:54AM 36.4664 -116.6292 317° Northwest 377 434 26,700 1,680 Climbing Los Angeles Center
01:55AM 36.5592 -116.7394 316° Northwest 380 437 29,200 2,220 Climbing Los Angeles Center
01:56AM 36.6436 -116.8075 327° Northwest 365 420 31,200 1,560 Climbing Los Angeles Center
01:57AM 36.7292 -116.8717 329° Northwest 358 412 32,400 1,200 Climbing Los Angeles Center
01:58AM 36.8136 -116.9356 329° Northwest 355 409 33,700 1,020 Climbing Los Angeles Center
01:59AM 36.8972 -116.9997 328° Northwest 352 405 34,600 900 Climbing Los Angeles Center
01:59AM 36.9286 -117.0264 326° Northwest 351 404 35,000 1,080 Climbing Oakland Center
02:00AM 36.9822 -117.1264 304° West 347 399 36,100 540 Climbing Oakland Center
02:01AM 37.0364 -117.2192 306° West 332 382 36,100  Level Oakland Center
02:02AM 37.0908 -117.3144 306° West 333 383 36,100  Level Oakland Center
02:03AM 37.1444 -117.4089 305° West 333 383 36,100  Level Oakland Center
02:04AM 37.1975 -117.5019 306° West 328 377 36,100  Level Oakland Center
02:06AM 37.2425 -117.6017 300° West 329 379 36,100  Level Oakland Center
02:07AM 37.2575 -117.7175 279° West 337 388 36,100  Level Oakland Center
02:08AM 37.2722 -117.8336 279° West 336 387 36,100  Level Oakland Center
02:09AM 37.2878 -117.9481 280° West 333 383 36,100  Level Oakland Center
02:10AM 37.3022 -118.0644 279° West 335 386 36,100  Level Oakland Center
02:11AM 37.3153 -118.1789 278° West 332 382 36,100  Level Oakland Center
02:12AM 37.3314 -118.2967 280° West 338 389 36,100  Level Oakland Center
02:13AM 37.3453 -118.4133 279° West 338 389 36,100  Level Oakland Center
02:14AM 37.3589 -118.5317 278° West 340 391 36,100  Level Oakland Center
02:15AM 37.3731 -118.6511 279° West 343 395 36,100  Level Oakland Center
02:16AM 37.3875 -118.7708 279° West 344 396 36,100  Level Oakland Center
02:17AM 37.3983 -118.8761 277° West 341 392 36,100 -60 Level Oakland Center
02:18AM 37.4136 -118.9972 279° West 346 398 36,000  Descending Oakland Center
02:19AM 37.4278 -119.1167 279° West 348 400 36,100  Climbing Oakland Center
02:20AM 37.4453 -119.2492 279° West 374 430 36,000  Descending Oakland Center
02:21AM 37.4608 -119.3936 278° West 351 404 36,100  Climbing Oakland Center
02:22AM 37.4733 -119.5164 277° West 356 410 36,100  Level Oakland Center
02:23AM 37.4872 -119.6372 278° West 352 405 36,100  Level Oakland Center
02:24AM 37.5008 -119.7617 278° West 357 411 36,100  Level Oakland Center
02:25AM 37.5133 -119.8844 277° West 353 406 36,100  Level Oakland Center
02:26AM 37.5264 -120.0097 278° West 361 415 36,100  Level Oakland Center
02:27AM 37.5397 -120.1358 278° West 395 455 36,100  Level Oakland Center
02:28AM 37.5558 -120.2539 280° West 354 407 36,100  Level Oakland Center
02:29AM 37.5683 -120.3806 277° West 361 415 36,100 -1,320 Level Oakland Center
02:30AM 37.5817 -120.5072 278° West 364 419 33,500 -2,940 Descending Oakland Center
02:31AM 37.5953 -120.6372 278° West 370 426 30,200 -2,880 Descending Oakland Center
02:32AM 37.6083 -120.7675 277° West 374 430 27,700 -2,520 Descending Oakland Center
02:33AM 37.6208 -120.8914 277° West 364 419 25,200 -2,400 Descending Oakland Center
02:34AM 37.6214 -121.0092 270° West 344 396 22,900 -2,340 Descending Oakland Center
02:35AM 37.6081 -121.1272 262° West 341 392 20,600 -2,280 Descending Oakland Center
02:36AM 37.5944 -121.2406 261° West 334 384 18,400 -2,220 Descending Oakland Center
02:37AM 37.5831 -121.3522 263° West 324 373 16,200 -2,280 Descending Oakland Center
02:38AM 37.5692 -121.4631 261° West 322 371 13,900 -2,340 Descending Oakland Center
02:39AM 37.5475 -121.5739 256° West 325 374 11,600 -1,500 Descending Oakland Center
02:40AM 37.5258 -121.6847 256° West 326 375 10,900 -840 Descending Oakland Center
02:41AM 37.5000 -121.8000 254° West 287 330 9,900 -960 Descending Northern Cal TRACON
02:42AM 37.4833 -121.8833 256° West 257 296 9,000 -1,080 Descending Northern Cal TRACON
02:43AM 37.4667 -121.9667 256° West 213 245 7,800 -1,620 Descending Northern Cal TRACON
02:44AM 37.4833 -122.0167 293° West 168 193 5,800 -1,800 Descending Northern Cal TRACON
02:45AM 37.5167 -122.0667 310° West 150 173 4,200 -900 Descending Northern Cal TRACON
02:46AM 37.5333 -122.1167 293° West 142 163 4,100 -360 Descending Northern Cal TRACON
02:47AM 37.5414 -122.1492 287° West 143 165 3,500 -780 Descending Oakland Center
02:48AM 37.5594 -122.1933 297° West 143 165 2,600 -780 Descending Oakland Center
02:49AM 37.5733 -122.2328 294° West 135 155 2,000 -600 Descending Oakland Center
02:50AM 37.5797 -122.2786 280° West 130 150 1,500 -720 Descending Oakland Center
02:51AM 37.5953 -122.3269 292° West 139 160 600 -660 Descending Oakland Center
02:52AM 37.6158 -122.3736 299° West 140 161 200 -420 Descending Oakland Center
02:54AM 37.6167 -122.3667 322° Northwest  Level FlightAware Approximate